Mason Township, Maine
Current Conditions -  °F | °C
As of 1:09 PM on Tuesday 21 Oct 2014 (Local Time) from KBML Reporting Station
Light Rain Light Rain  
Wind Chill:   Ceiling: 2800
Heat Index:   Visibility: 10mi
Dew Point:   Wind: 6mph
Humidity: 93%   Direction: 350°N
Pressure: 30.02"   Gusts: NA
Location:  44.3718°N, 70.8421°W
Report Text: KBML 211709Z AUTO 35005KT 10SM -RA OVC028 08/07 A3002 RMK AO2 P0000 T00780067
Loading
Personal Weather Stations






























Interactive Weather Map
Tropical Storm Tracking
New forecast layout! Learn more

10-Day Weather Forecast

Advertisements
Track Severe Weather on mobile